Time;durP1;ratioP1;P1;durP2;ratioP2;P2;SDS_P1;SDS_P2;PMS_P1;PMS_P2;Temp;Humidity;BMP_temperature;BMP_pressure;BME280_temperature;BME280_humidity;BME280_pressure;Samples;Min_cycle;Max_cycle;Signal;HPM_P1;HPM_P2
2022/01/12 00:00:05;;;;;;;14.02;8.18;;;;;;;0.65;100.00;101950.25;4950909;28;20035;-66
2022/01/12 00:02:30;;;;;;;12.27;7.75;;;;;;;0.66;100.00;101942.47;4949959;29;20065;-65
2022/01/12 00:04:57;;;;;;;12.65;7.63;;;;;;;0.63;100.00;101941.44;4947664;29;20550;-65
2022/01/12 00:07:23;;;;;;;13.18;7.13;;;;;;;0.62;100.00;101950.16;4933678;29;20075;-65
2022/01/12 00:09:48;;;;;;;14.80;8.85;;;;;;;0.59;100.00;101950.03;4946037;28;20058;-65
2022/01/12 00:12:14;;;;;;;12.35;7.53;;;;;;;0.55;100.00;101945.50;4943042;29;20095;-65
2022/01/12 00:14:39;;;;;;;15.77;7.82;;;;;;;0.51;100.00;101941.00;4941601;29;20023;-65
2022/01/12 00:17:05;;;;;;;15.23;8.40;;;;;;;0.51;100.00;101948.88;4951124;29;20074;-65
2022/01/12 00:19:30;;;;;;;17.20;8.25;;;;;;;0.50;100.00;101944.44;4950635;29;20389;-65
2022/01/12 00:21:56;;;;;;;13.43;7.53;;;;;;;0.50;100.00;101945.34;4951190;29;20023;-65
2022/01/12 00:24:26;;;;;;;12.52;7.25;;;;;;;0.52;100.00;101943.69;4949935;29;20027;-65
2022/01/12 00:35:03;;;;;;;13.13;6.45;;;;;;;0.56;100.00;101945.56;4949718;29;20089;-66
2022/01/12 00:37:29;;;;;;;10.52;7.18;;;;;;;0.58;100.00;101948.25;4951058;29;20027;-66
2022/01/12 00:39:58;;;;;;;13.15;7.63;;;;;;;0.61;100.00;101945.75;4950709;29;20038;-66
2022/01/12 00:42:26;;;;;;;13.18;7.88;;;;;;;0.64;100.00;101948.50;4950990;29;20035;-66
2022/01/12 00:44:53;;;;;;;12.88;7.50;;;;;;;0.67;100.00;101952.13;4949291;29;20026;-66
2022/01/12 00:47:18;;;;;;;12.10;6.32;;;;;;;0.67;100.00;101959.97;4946236;29;20062;-66
2022/01/12 00:49:44;;;;;;;13.13;7.35;;;;;;;0.72;100.00;101954.91;4930186;29;20063;-66
2022/01/12 00:52:09;;;;;;;17.90;8.00;;;;;;;0.65;100.00;101950.25;4932120;29;20392;-66
2022/01/12 00:54:35;;;;;;;13.90;7.55;;;;;;;0.58;100.00;101948.25;4931433;29;20090;-66
2022/01/12 00:57:00;;;;;;;12.43;7.10;;;;;;;0.55;100.00;101946.41;4938388;29;20113;-66
2022/01/12 00:59:26;;;;;;;13.82;7.28;;;;;;;0.44;100.00;101944.22;4950258;29;20023;-66
2022/01/12 01:01:51;;;;;;;13.90;7.57;;;;;;;0.46;100.00;101942.56;4949928;29;20043;-66
2022/01/12 01:04:16;;;;;;;12.00;7.28;;;;;;;0.54;100.00;101944.66;4950800;29;20046;-66
2022/01/12 01:06:42;;;;;;;14.90;7.45;;;;;;;0.44;100.00;101923.28;4950493;28;20031;-66
2022/01/12 01:09:07;;;;;;;13.45;8.02;;;;;;;0.44;100.00;101929.41;4950557;29;20031;-66
2022/01/12 01:11:33;;;;;;;14.23;7.53;;;;;;;0.26;100.00;101948.75;4950538;29;20806;-66
2022/01/12 01:14:03;;;;;;;18.50;8.15;;;;;;;0.40;100.00;101942.28;4950094;29;20031;-66
2022/01/12 01:27:19;;;;;;;16.90;7.72;;;;;;;0.32;100.00;101938.50;4949336;29;20559;-66
2022/01/12 01:29:45;;;;;;;18.02;8.05;;;;;;;0.28;100.00;101941.84;4949238;29;20082;-66
2022/01/12 01:32:11;;;;;;;15.75;7.82;;;;;;;0.33;100.00;101961.25;4949671;29;20336;-66
2022/01/12 01:34:43;;;;;;;16.52;8.50;;;;;;;0.30;100.00;101959.38;4950590;29;20050;-66
2022/01/12 01:37:09;;;;;;;19.45;8.00;;;;;;;0.21;100.00;101961.66;4950356;29;20063;-66
2022/01/12 01:39:35;;;;;;;12.63;7.47;;;;;;;0.16;100.00;101959.66;4949878;29;20069;-66
2022/01/12 01:42:07;;;;;;;13.20;7.55;;;;;;;0.23;100.00;101977.41;4950339;29;20088;-66
2022/01/12 01:53:18;;;;;;;8.95;6.45;;;;;;;0.22;100.00;101975.59;4949585;29;20054;-66
2022/01/12 01:55:35;;;;;;;12.57;6.18;;;;;;;0.22;100.00;101993.91;4949784;29;20062;-65
2022/01/12 01:58:00;;;;;;;11.82;6.40;;;;;;;0.19;100.00;101991.19;4949900;29;20114;-65
2022/01/12 02:00:32;;;;;;;14.05;8.52;;;;;;;0.18;100.00;101999.88;4949377;29;20050;-65
2022/01/12 02:02:57;;;;;;;14.70;7.40;;;;;;;0.17;100.00;102000.69;4950183;29;20070;-65
2022/01/12 02:05:24;;;;;;;14.43;7.80;;;;;;;0.17;100.00;101998.97;4949742;29;20406;-65
2022/01/12 02:07:50;;;;;;;11.02;6.22;;;;;;;0.11;100.00;101989.97;4950249;28;20062;-65
2022/01/12 02:10:15;;;;;;;12.32;7.88;;;;;;;0.11;100.00;101990.88;4949582;29;20027;-65
2022/01/12 02:12:41;;;;;;;14.63;8.05;;;;;;;0.08;100.00;101995.09;4950016;29;20031;-65
2022/01/12 02:15:21;;;;;;;14.27;7.28;;;;;;;0.10;100.00;101990.81;4950122;29;20027;-65
2022/01/12 02:18:01;;;;;;;12.77;7.70;;;;;;;0.28;100.00;101979.34;4948729;29;20043;-65
2022/01/12 02:40:14;;;;;;;16.90;8.30;;;;;;;0.19;100.00;101994.69;4952306;29;20042;-65
2022/01/12 02:42:44;;;;;;;17.20;9.65;;;;;;;0.16;100.00;101972.75;4953295;29;20027;-65
2022/01/12 02:55:52;;;;;;;12.13;7.43;;;;;;;0.23;100.00;101966.94;4951906;29;20403;-65
2022/01/12 02:58:18;;;;;;;14.80;7.53;;;;;;;0.12;100.00;101965.59;4951154;29;20027;-65
2022/01/12 03:03:22;;;;;;;13.15;7.50;;;;;;;0.16;100.00;101980.59;4952977;29;20035;-65
2022/01/12 03:05:56;;;;;;;15.07;6.53;;;;;;;0.09;100.00;101984.69;4952778;29;20035;-65
2022/01/12 03:08:24;;;;;;;11.35;6.78;;;;;;;0.07;100.00;101988.97;4952475;28;20437;-65
2022/01/12 03:10:49;;;;;;;14.68;6.40;;;;;;;0.10;100.00;101989.06;4951400;29;20033;-65
2022/01/12 03:13:15;;;;;;;10.35;6.78;;;;;;;0.12;100.00;101999.59;4952623;29;20031;-65
2022/01/12 03:15:41;;;;;;;13.35;6.13;;;;;;;0.12;100.00;101990.03;4952822;29;20034;-65
2022/01/12 03:18:07;;;;;;;11.70;6.35;;;;;;;0.19;100.00;101983.34;4951944;29;20027;-66
2022/01/12 03:20:33;;;;;;;10.80;6.18;;;;;;;0.22;100.00;101991.28;4950565;29;20046;-66
2022/01/12 03:22:59;;;;;;;12.50;7.43;;;;;;;0.23;100.00;101995.72;4951832;29;20452;-65
2022/01/12 03:25:25;;;;;;;9.77;5.85;;;;;;;0.21;100.00;102002.59;4952140;29;20027;-65
2022/01/12 03:27:56;;;;;;;11.05;5.75;;;;;;;0.21;100.00;102007.84;4952565;29;20618;-65
2022/01/12 03:30:21;;;;;;;10.85;5.75;;;;;;;0.19;100.00;102010.41;4951898;29;20031;-65
2022/01/12 03:33:01;;;;;;;11.57;6.65;;;;;;;0.12;100.00;101982.19;4952068;29;20030;-65
2022/01/12 03:35:47;;;;;;;11.23;6.25;;;;;;;0.11;100.00;101979.50;4951355;28;20031;-65
2022/01/12 03:38:20;;;;;;;7.70;5.95;;;;;;;0.18;100.00;101986.78;4951934;29;20435;-65
2022/01/12 03:40:50;;;;;;;11.73;6.85;;;;;;;0.22;100.00;101980.84;4950271;29;20102;-65
2022/01/12 03:43:17;;;;;;;11.73;6.68;;;;;;;0.25;100.00;101986.22;4952246;29;20075;-65
2022/01/12 03:45:44;;;;;;;14.73;6.50;;;;;;;0.24;100.00;101981.78;4951953;29;20031;-65
2022/01/12 03:48:10;;;;;;;11.50;6.65;;;;;;;0.24;100.00;101977.47;4951955;29;20083;-65
2022/01/12 03:50:36;;;;;;;14.63;6.97;;;;;;;0.23;100.00;101978.28;4951019;29;20035;-65
2022/01/12 03:53:01;;;;;;;14.27;6.45;;;;;;;0.24;100.00;101981.78;4952146;29;20666;-65
2022/01/12 03:55:26;;;;;;;14.80;7.47;;;;;;;0.21;100.00;101982.56;4951722;29;20364;-65
2022/01/12 03:57:52;;;;;;;12.48;7.00;;;;;;;0.21;100.00;101989.53;4951243;29;20089;-65
2022/01/12 04:00:17;;;;;;;15.95;7.18;;;;;;;0.15;100.00;101986.66;4951413;29;20043;-65
2022/01/12 04:02:42;;;;;;;19.48;8.77;;;;;;;-0.03;100.00;101982.47;4949861;29;20027;-65
2022/01/12 04:10:19;;;;;;;85.05;35.63;;;;;;;0.07;100.00;101993.31;4989457;28;20124;-65
2022/01/12 04:12:44;;;;;;;80.22;33.42;;;;;;;0.00;100.00;101987.81;4990322;28;20105;-65
2022/01/12 04:15:10;;;;;;;49.40;25.20;;;;;;;0.01;100.00;101993.94;4989992;28;20030;-65
2022/01/12 04:17:35;;;;;;;32.72;15.70;;;;;;;-0.03;100.00;102003.38;4989792;28;20374;-64
2022/01/12 04:20:02;;;;;;;18.27;9.50;;;;;;;-0.05;100.00;102012.88;4989068;28;20026;-65
2022/01/12 04:25:12;;;;;;;11.90;8.40;;;;;;;-0.12;100.00;102008.25;4989639;28;20108;-65
2022/01/12 04:27:39;;;;;;;13.50;7.78;;;;;;;-0.19;100.00;102006.19;4990147;28;20125;-65
2022/01/12 04:30:06;;;;;;;14.70;6.53;;;;;;;-0.17;100.00;102001.94;4988698;28;20088;-65
2022/01/12 04:32:35;;;;;;;13.65;7.38;;;;;;;-0.18;100.00;101992.28;4989461;28;20038;-65
2022/01/12 04:35:01;;;;;;;11.20;6.82;;;;;;;-0.19;100.00;101995.75;4973307;28;20030;-64
2022/01/12 04:37:26;;;;;;;13.90;7.25;;;;;;;-0.34;100.00;101974.19;4989354;28;20474;-65
2022/01/12 04:39:51;;;;;;;14.18;8.27;;;;;;;-0.26;100.00;102001.53;4988781;28;20077;-65
2022/01/12 04:42:17;;;;;;;13.02;9.00;;;;;;;-0.23;100.00;102016.47;4989787;28;20097;-65
2022/01/12 04:44:45;;;;;;;16.45;8.13;;;;;;;-0.27;100.00;102023.28;4989449;28;20036;-65
2022/01/12 04:47:26;;;;;;;19.13;10.38;;;;;;;-0.29;100.00;102022.31;4988999;28;20030;-65
2022/01/12 04:49:52;;;;;;;16.27;8.20;;;;;;;-0.25;100.00;102026.84;4989251;28;20027;-65
2022/01/12 04:52:17;;;;;;;15.63;8.30;;;;;;;-0.31;100.00;102020.47;4989291;28;20433;-65
2022/01/12 04:54:43;;;;;;;14.63;7.47;;;;;;;-0.36;100.00;102038.56;4988968;28;20022;-65
2022/01/12 04:57:08;;;;;;;17.88;8.02;;;;;;;-0.37;100.00;102052.47;4972075;28;20506;-65
2022/01/12 04:59:38;;;;;;;14.43;8.50;;;;;;;-0.42;100.00;102050.47;4989090;28;20026;-65
2022/01/12 05:06:21;;;;;;;13.32;7.53;;;;;;;-0.45;100.00;102064.31;4989818;28;20376;-65
2022/01/12 05:07:44;;;;;;;13.55;7.30;;;;;;;-0.45;100.00;102056.47;4988524;28;20057;-65
2022/01/12 05:13:01;;;;;;;16.55;8.52;;;;;;;-0.35;100.00;102066.50;4966153;28;20454;-65
2022/01/12 05:15:31;;;;;;;12.63;7.25;;;;;;;-0.39;100.00;102053.22;4988731;28;20152;-64
2022/01/12 05:17:56;;;;;;;12.90;8.32;;;;;;;-0.42;100.00;102059.22;4988852;28;20442;-64
2022/01/12 05:20:23;;;;;;;12.75;8.18;;;;;;;-0.45;100.00;102063.41;4988787;28;20041;-64
2022/01/12 05:22:48;;;;;;;13.05;7.80;;;;;;;-0.50;100.00;102060.59;4988786;28;20026;-64
2022/01/12 05:25:17;;;;;;;11.80;7.70;;;;;;;-0.49;100.00;102067.63;4988594;28;20458;-65
2022/01/12 05:27:42;;;;;;;14.57;8.10;;;;;;;-0.48;100.00;102068.50;4988110;28;20367;-65
2022/01/12 05:30:08;;;;;;;24.58;11.18;;;;;;;-0.39;100.00;102059.34;4988594;28;20042;-65
2022/01/12 05:32:34;;;;;;;17.17;8.75;;;;;;;-0.37;100.00;102052.47;4988666;28;20030;-65
2022/01/12 05:35:02;;;;;;;30.80;12.60;;;;;;;-0.29;100.00;102060.63;4988537;28;20355;-65
2022/01/12 05:37:28;;;;;;;23.10;11.18;;;;;;;-0.30;100.00;102069.31;4988607;28;20037;-65
2022/01/12 05:39:53;;;;;;;15.27;9.60;;;;;;;-0.31;100.00;102083.19;4988538;28;20105;-65
2022/01/12 05:42:19;;;;;;;21.42;9.80;;;;;;;-0.37;100.00;102089.06;4988806;28;20140;-64
2022/01/12 05:44:44;;;;;;;18.02;8.85;;;;;;;-0.45;100.00;102080.00;4989006;28;20026;-64
2022/01/12 05:47:28;;;;;;;14.77;8.98;;;;;;;-0.51;100.00;102079.72;4988827;28;20554;-64
2022/01/12 05:49:54;;;;;;;16.30;8.55;;;;;;;-0.53;100.00;102083.09;4987514;28;20035;-65
2022/01/12 05:52:19;;;;;;;14.10;7.32;;;;;;;-0.55;100.00;102088.25;4988544;28;20172;-64
2022/01/12 05:54:45;;;;;;;16.73;8.27;;;;;;;-0.61;100.00;102087.97;4988725;28;20558;-64
2022/01/12 05:57:10;;;;;;;13.70;8.00;;;;;;;-0.54;100.00;102084.81;4988727;28;20747;-64
2022/01/12 05:59:35;;;;;;;13.95;7.78;;;;;;;-0.49;100.00;102090.22;4991560;28;20030;-64
2022/01/12 06:02:02;;;;;;;13.55;7.55;;;;;;;-0.50;100.00;102091.97;4992525;28;20030;-64
2022/01/12 06:04:28;;;;;;;16.33;7.88;;;;;;;-0.49;100.00;102091.13;4992914;28;20390;-64
2022/01/12 06:06:53;;;;;;;17.27;8.20;;;;;;;-0.55;100.00;102098.72;4991011;28;20046;-64
2022/01/12 06:09:19;;;;;;;15.43;7.63;;;;;;;-0.49;100.00;102098.97;4992511;28;20114;-64
2022/01/12 06:11:49;;;;;;;14.00;8.02;;;;;;;-0.51;100.00;102099.75;4992206;28;20022;-64
2022/01/12 06:14:18;;;;;;;13.82;8.27;;;;;;;-0.53;100.00;102096.16;4974142;28;20750;-64
2022/01/12 06:16:44;;;;;;;19.02;9.07;;;;;;;-0.56;100.00;102104.75;4983713;28;20079;-63
2022/01/12 06:19:10;;;;;;;18.95;8.60;;;;;;;-0.55;100.00;102098.72;4974859;28;20026;-63
2022/01/12 06:21:35;;;;;;;18.38;9.65;;;;;;;-0.53;100.00;102094.41;4972645;28;20031;-63
2022/01/12 06:24:00;;;;;;;19.95;9.35;;;;;;;-0.42;100.00;102105.38;4972562;28;20037;-63
2022/01/12 06:26:26;;;;;;;15.55;9.15;;;;;;;-0.43;100.00;102109.69;4974968;28;20558;-63
2022/01/12 06:31:43;;;;;;;26.17;14.43;;;;;;;-0.31;100.00;102099.78;4984020;28;20023;-63
2022/01/12 06:34:08;;;;;;;29.73;11.93;;;;;;;-0.36;100.00;102095.16;4982399;28;20038;-63
2022/01/12 06:36:34;;;;;;;21.58;11.43;;;;;;;-0.43;100.00;102086.16;4982094;28;20038;-63
2022/01/12 06:38:59;;;;;;;28.42;14.40;;;;;;;-0.41;100.00;102081.00;4980235;28;20094;-63
2022/01/12 06:41:25;;;;;;;20.13;10.82;;;;;;;-0.39;100.00;102090.72;4982101;28;20019;-63
2022/01/12 06:43:53;;;;;;;27.38;13.13;;;;;;;-0.41;100.00;102089.75;4980107;28;20026;-63
2022/01/12 06:46:24;;;;;;;27.02;14.75;;;;;;;-0.37;100.00;102094.31;4986112;28;20367;-63
2022/01/12 06:48:49;;;;;;;25.33;12.75;;;;;;;-0.46;100.00;102088.66;4981972;28;20029;-63
2022/01/12 06:51:15;;;;;;;25.83;13.38;;;;;;;-0.55;100.00;102098.72;4981155;28;20023;-63
2022/01/12 06:53:41;;;;;;;22.20;13.43;;;;;;;-0.59;100.00;102096.78;4980628;28;20102;-63
2022/01/12 06:56:08;;;;;;;29.83;17.38;;;;;;;-0.58;100.00;102103.81;4982467;28;20030;-63
2022/01/12 06:58:33;;;;;;;31.27;18.52;;;;;;;-0.52;100.00;102098.84;4991115;28;20026;-63
2022/01/12 07:00:59;;;;;;;31.70;16.63;;;;;;;-0.50;100.00;102094.59;4990556;28;20851;-63
2022/01/12 07:03:24;;;;;;;27.83;14.70;;;;;;;-0.47;100.00;102107.78;4991102;28;20073;-63
2022/01/12 07:05:50;;;;;;;28.98;16.10;;;;;;;-0.50;100.00;102104.13;4990957;28;20109;-63
2022/01/12 07:08:15;;;;;;;27.17;14.18;;;;;;;-0.43;100.00;102109.69;4990460;28;20126;-63
2022/01/12 07:10:41;;;;;;;39.88;20.85;;;;;;;-0.61;100.00;102087.97;4990908;28;20113;-63
2022/01/12 07:13:10;;;;;;;35.85;18.65;;;;;;;-0.49;100.00;102104.19;4991306;28;20346;-63
2022/01/12 07:15:37;;;;;;;37.20;18.83;;;;;;;-0.42;100.00;102102.75;4991621;28;20490;-63
2022/01/12 07:18:03;;;;;;;34.13;19.13;;;;;;;-0.41;100.00;102109.75;4990877;28;20041;-63
2022/01/12 07:20:29;;;;;;;34.10;18.95;;;;;;;-0.45;100.00;102115.69;4990581;28;20030;-63
2022/01/12 07:22:54;;;;;;;31.23;16.25;;;;;;;-0.63;100.00;102100.09;4990968;28;20034;-63
2022/01/12 07:25:20;;;;;;;26.00;15.05;;;;;;;-0.55;100.00;102130.06;4991294;28;20462;-63
2022/01/12 07:27:45;;;;;;;19.52;12.82;;;;;;;-0.60;100.00;102156.81;4990879;28;20030;-63
2022/01/12 07:30:11;;;;;;;22.92;13.48;;;;;;;-0.64;100.00;102161.00;4990245;28;20591;-63
2022/01/12 07:32:37;;;;;;;22.20;13.55;;;;;;;-0.61;100.00;102165.47;4990264;28;20022;-63
2022/01/12 07:35:03;;;;;;;19.92;11.18;;;;;;;-0.61;100.00;102168.97;4990956;28;20407;-63
2022/01/12 07:37:29;;;;;;;14.65;8.70;;;;;;;-0.60;100.00;102178.63;4991052;28;20022;-63
2022/01/12 07:39:54;;;;;;;16.70;8.85;;;;;;;-0.49;100.00;102177.38;4990150;28;20026;-63
2022/01/12 07:42:20;;;;;;;13.60;8.05;;;;;;;-0.46;100.00;102181.88;4990926;28;20525;-63
2022/01/12 07:44:45;;;;;;;17.42;9.48;;;;;;;-0.43;100.00;102189.84;4990759;28;20022;-63
2022/01/12 07:47:10;;;;;;;22.20;11.15;;;;;;;-0.40;100.00;102198.72;4990382;28;20437;-63
2022/01/12 07:49:36;;;;;;;17.70;9.27;;;;;;;-0.36;100.00;102203.25;4973048;28;20086;-63
2022/01/12 07:52:04;;;;;;;14.55;8.05;;;;;;;-0.29;100.00;102205.34;4990747;28;20027;-63
2022/01/12 07:54:29;;;;;;;14.10;8.35;;;;;;;-0.21;100.00;102208.28;4990521;28;20066;-63
2022/01/12 07:56:55;;;;;;;15.98;7.95;;;;;;;-0.14;100.00;102216.50;4990433;28;20505;-63
2022/01/12 07:59:20;;;;;;;15.85;8.68;;;;;;;-0.03;100.00;102212.63;4987258;28;21088;-63
2022/01/12 08:01:46;;;;;;;18.27;9.10;;;;;;;0.14;100.00;102202.91;4980582;28;20027;-64
2022/01/12 08:04:11;;;;;;;13.35;7.57;;;;;;;0.42;100.00;102205.00;4979476;28;20112;-63
2022/01/12 08:06:37;;;;;;;15.05;8.68;;;;;;;0.64;100.00;102210.31;4982537;28;20564;-63
2022/01/12 08:09:02;;;;;;;16.33;9.73;;;;;;;0.68;100.00;102214.84;4984750;28;20178;-63
2022/01/12 08:11:29;;;;;;;16.73;10.20;;;;;;;0.84;100.00;102212.06;4979237;28;20029;-63
2022/01/12 08:13:54;;;;;;;20.45;10.70;;;;;;;1.20;100.00;102216.16;4975068;28;20034;-63
2022/01/12 08:16:20;;;;;;;19.92;11.68;;;;;;;1.48;100.00;102213.81;4976608;28;20027;-63
2022/01/12 08:18:45;;;;;;;25.23;12.90;;;;;;;1.88;100.00;102211.84;4978941;28;20030;-63
2022/01/12 08:21:11;;;;;;;21.88;13.65;;;;;;;2.45;100.00;102208.72;4965477;28;20030;-63
2022/01/12 08:23:36;;;;;;;24.38;15.40;;;;;;;2.78;100.00;102198.44;4990002;28;20077;-63
2022/01/12 08:26:02;;;;;;;23.55;14.27;;;;;;;3.22;100.00;102197.25;4990233;28;20034;-63
2022/01/12 08:28:27;;;;;;;29.17;15.98;;;;;;;3.50;98.32;102199.91;4989245;28;20449;-63
2022/01/12 08:30:53;;;;;;;24.70;16.23;;;;;;;3.52;94.57;102208.72;4989356;28;20036;-63
2022/01/12 08:33:18;;;;;;;28.63;15.73;;;;;;;3.40;92.35;102208.34;4989605;28;20095;-63
2022/01/12 08:35:44;;;;;;;26.42;15.93;;;;;;;3.24;90.96;102225.41;4985155;28;20030;-63
2022/01/12 08:38:09;;;;;;;28.98;16.73;;;;;;;3.11;91.19;102230.19;4989469;28;20387;-63
2022/01/12 08:40:38;;;;;;;32.83;16.73;;;;;;;3.00;90.07;102236.84;4988441;28;20430;-63
2022/01/12 08:43:04;;;;;;;33.88;18.15;;;;;;;2.96;88.54;102224.44;4985562;28;20054;-63
2022/01/12 08:45:29;;;;;;;48.72;29.60;;;;;;;2.76;88.16;102225.50;4988294;28;20600;-63
2022/01/12 08:47:55;;;;;;;60.05;36.42;;;;;;;2.66;89.64;102240.97;4987902;28;20034;-63
2022/01/12 08:50:21;;;;;;;70.03;39.42;;;;;;;2.65;89.66;102246.16;4987295;28;20057;-63
2022/01/12 08:52:47;;;;;;;38.00;26.02;;;;;;;2.69;90.67;102240.16;4987831;28;20170;-63
2022/01/12 08:55:15;;;;;;;53.15;28.55;;;;;;;2.73;90.56;102252.56;4989373;28;20105;-63
2022/01/12 08:57:41;;;;;;;52.60;28.52;;;;;;;3.02;92.60;102257.06;4987580;28;20042;-63
2022/01/12 09:00:08;;;;;;;39.55;23.77;;;;;;;4.41;97.11;102243.88;4987838;28;20077;-63
2022/01/12 09:02:34;;;;;;;33.35;20.13;;;;;;;6.21;91.98;102243.91;4988228;28;20049;-63
2022/01/12 09:04:59;;;;;;;32.20;19.05;;;;;;;7.86;79.02;102241.47;4987528;28;20034;-63
2022/01/12 09:07:24;;;;;;;35.47;19.50;;;;;;;9.53;71.05;102244.16;4987107;28;20038;-63
2022/01/12 09:09:50;;;;;;;30.25;18.02;;;;;;;11.29;60.88;102248.41;4987751;28;20026;-63
2022/01/12 09:12:16;;;;;;;23.15;13.93;;;;;;;12.83;52.15;102256.81;4988446;28;20043;-63
2022/01/12 09:14:41;;;;;;;40.53;21.73;;;;;;;13.99;47.37;102252.28;4987757;28;20026;-63
2022/01/12 09:17:18;;;;;;;37.67;21.90;;;;;;;15.01;43.20;102255.44;4989627;28;20081;-63
2022/01/12 09:19:45;;;;;;;27.10;15.15;;;;;;;15.25;40.78;102245.25;4987738;28;20096;-63
2022/01/12 09:22:11;;;;;;;26.98;14.90;;;;;;;15.26;39.86;102251.47;4989029;28;20025;-63
2022/01/12 09:24:37;;;;;;;23.55;13.32;;;;;;;15.19;40.40;102258.72;4987687;28;20034;-63
2022/01/12 09:27:02;;;;;;;16.92;10.18;;;;;;;15.57;41.61;102271.53;4987949;28;20034;-64
2022/01/12 09:29:28;;;;;;;12.85;7.60;;;;;;;16.12;39.45;102288.41;4988236;28;20035;-64
2022/01/12 09:31:53;;;;;;;12.27;7.25;;;;;;;16.70;38.33;102289.03;4988872;28;20045;-64
2022/01/12 09:34:19;;;;;;;15.27;8.23;;;;;;;17.18;37.13;102280.78;4992929;28;20085;-64
2022/01/12 09:36:45;;;;;;;15.77;9.32;;;;;;;17.50;36.41;102279.09;4991701;28;20070;-64
2022/01/12 09:39:11;;;;;;;13.98;8.60;;;;;;;17.81;35.67;102282.75;4991620;28;20058;-64
2022/01/12 09:41:36;;;;;;;12.63;9.32;;;;;;;18.26;35.15;102283.31;4992731;28;20026;-64
2022/01/12 09:44:02;;;;;;;11.50;8.10;;;;;;;18.42;35.39;102295.47;4992219;28;20034;-64
2022/01/12 09:46:28;;;;;;;14.70;7.07;;;;;;;18.49;34.67;102301.56;4992740;28;20026;-64
2022/01/12 09:48:56;;;;;;;9.93;6.10;;;;;;;18.67;33.92;102307.31;4991847;28;20035;-64
2022/01/12 09:51:23;;;;;;;10.45;6.72;;;;;;;18.55;34.29;102301.41;4991643;28;20034;-64
2022/01/12 09:53:48;;;;;;;10.77;6.80;;;;;;;18.10;35.06;102304.41;4992501;28;20455;-64
2022/01/12 09:56:20;;;;;;;9.45;5.63;;;;;;;18.46;34.31;102307.03;4991664;28;20121;-65
2022/01/12 09:58:48;;;;;;;11.52;6.88;;;;;;;18.46;34.42;102307.03;4992548;28;20019;-65
2022/01/12 10:01:24;;;;;;;8.35;5.70;;;;;;;18.09;34.53;102275.72;4991837;28;20027;-65
2022/01/12 10:03:49;;;;;;;11.23;6.38;;;;;;;18.36;34.58;102312.69;4992393;28;20064;-65
2022/01/12 10:06:17;;;;;;;9.43;5.75;;;;;;;18.36;34.78;102306.41;4990911;28;20019;-65
2022/01/12 10:08:44;;;;;;;8.48;5.75;;;;;;;18.28;34.74;102319.19;4992115;28;20120;-65
2022/01/12 10:11:12;;;;;;;9.48;5.80;;;;;;;17.81;34.51;102328.53;4992310;28;20037;-65
2022/01/12 10:13:40;;;;;;;9.73;5.60;;;;;;;16.77;35.74;102322.03;4992434;28;20113;-65
2022/01/12 10:16:14;;;;;;;9.65;6.32;;;;;;;16.64;37.16;102317.81;4991859;28;20423;-65
2022/01/12 10:18:49;;;;;;;10.75;6.53;;;;;;;16.94;36.35;102318.06;4990596;28;20030;-64
2022/01/12 10:21:30;;;;;;;10.52;6.85;;;;;;;17.07;35.95;102310.59;4989954;28;20040;-65
2022/01/12 10:24:05;;;;;;;11.98;6.25;;;;;;;17.11;36.04;102301.56;4991318;28;20029;-65
2022/01/12 10:26:37;;;;;;;9.82;6.50;;;;;;;17.27;35.85;102270.66;4957056;28;20470;-64
2022/01/12 10:29:14;;;;;;;12.02;6.63;;;;;;;17.07;35.36;102310.59;4991345;28;20053;-64
2022/01/12 10:32:01;;;;;;;11.88;7.07;;;;;;;17.23;36.06;102301.28;4990915;28;20522;-63
2022/01/12 10:34:48;;;;;;;11.68;7.75;;;;;;;17.25;35.81;102306.63;4990705;28;20040;-64
2022/01/12 10:37:16;;;;;;;10.77;7.20;;;;;;;17.47;35.68;102308.78;4991296;28;20040;-64
2022/01/12 10:39:45;;;;;;;13.40;7.03;;;;;;;17.50;35.43;102322.16;4987279;28;20101;-64
2022/01/12 10:42:13;;;;;;;12.07;6.60;;;;;;;17.42;35.98;102317.84;4989145;28;20023;-64
2022/01/12 10:44:44;;;;;;;11.23;6.70;;;;;;;17.34;35.01;102309.97;4990551;28;20494;-65
2022/01/12 10:47:18;;;;;;;12.65;6.60;;;;;;;16.83;36.67;102312.03;4991055;28;20034;-65
2022/01/12 10:49:58;;;;;;;11.20;6.72;;;;;;;16.73;36.33;102320.31;4990471;28;20383;-65
2022/01/12 10:52:28;;;;;;;8.50;5.68;;;;;;;16.90;35.83;102318.16;4991325;28;20034;-65
2022/01/12 10:54:57;;;;;;;8.95;6.28;;;;;;;16.93;36.46;102307.34;4991167;28;20465;-65
2022/01/12 10:57:22;;;;;;;10.45;6.22;;;;;;;16.79;34.87;102293.31;4990666;28;20496;-65
2022/01/12 11:00:10;;;;;;;9.95;5.85;;;;;;;16.80;36.16;102295.97;4984928;28;20145;-65
2022/01/12 11:02:38;;;;;;;8.55;5.68;;;;;;;16.64;35.26;102293.63;4991339;28;20033;-65
2022/01/12 11:05:06;;;;;;;9.48;6.22;;;;;;;16.36;37.27;102293.28;4988721;28;20057;-65
2022/01/12 11:07:31;;;;;;;9.00;5.95;;;;;;;16.21;37.08;102290.03;4988593;28;20586;-67
2022/01/12 11:09:59;;;;;;;10.35;6.30;;;;;;;16.07;36.97;102284.03;4990776;28;20113;-68
2022/01/12 11:12:25;;;;;;;10.95;6.15;;;;;;;16.08;36.73;102280.47;4990656;28;20034;-68
2022/01/12 11:14:51;;;;;;;11.20;6.18;;;;;;;16.02;37.51;102276.06;4990930;28;20398;-67
2022/01/12 11:17:17;;;;;;;8.88;5.57;;;;;;;16.29;36.06;102270.16;4972166;28;20052;-69
2022/01/12 11:19:52;;;;;;;11.48;6.38;;;;;;;16.25;37.89;102278.31;4986217;28;20033;-69
2022/01/12 11:22:56;;;;;;;9.48;5.53;;;;;;;16.29;35.57;102269.28;4982518;28;20027;-69
2022/01/12 11:25:43;;;;;;;7.82;5.03;;;;;;;15.92;37.84;102247.63;4977911;28;20030;-69
2022/01/12 11:28:27;;;;;;;9.60;5.43;;;;;;;15.77;36.43;102250.59;4989920;28;20042;-69
2022/01/12 11:30:54;;;;;;;8.38;5.32;;;;;;;15.68;37.50;102254.31;4971692;28;20034;-69
2022/01/12 11:33:36;;;;;;;11.52;5.70;;;;;;;15.78;37.74;102255.06;4989921;28;20044;-69
2022/01/12 11:36:02;;;;;;;10.50;6.05;;;;;;;16.18;35.43;102236.38;4990093;28;20074;-69
2022/01/12 11:38:35;;;;;;;9.23;5.25;;;;;;;15.79;37.56;102230.88;4973103;28;20482;-69
2022/01/12 11:41:23;;;;;;;11.02;6.03;;;;;;;15.78;36.45;102237.16;4989989;28;20053;-69
2022/01/12 11:44:08;;;;;;;9.00;5.60;;;;;;;15.95;35.71;102233.28;4971391;28;20093;-69
2022/01/12 11:46:48;;;;;;;10.65;5.95;;;;;;;15.68;37.13;102221.28;4971559;28;20023;-69
2022/01/12 11:49:28;;;;;;;10.30;6.05;;;;;;;15.85;37.14;102221.81;4971110;28;20030;-70
2022/01/12 11:51:56;;;;;;;8.85;5.45;;;;;;;15.93;36.65;102219.00;4970993;28;20023;-70
2022/01/12 11:54:30;;;;;;;11.50;6.05;;;;;;;15.89;36.43;102211.91;4970688;28;20039;-70
2022/01/12 11:56:59;;;;;;;9.52;5.70;;;;;;;15.28;36.69;102222.84;4975292;28;20033;-70
2022/01/12 11:59:27;;;;;;;8.05;5.88;;;;;;;15.58;37.79;102215.16;4988753;28;20092;-70
2022/01/12 12:02:14;;;;;;;8.88;5.30;;;;;;;15.72;37.07;102223.84;4989515;28;20113;-70
2022/01/12 12:04:52;;;;;;;9.40;5.40;;;;;;;14.94;38.14;102216.25;4990113;28;20486;-70
2022/01/12 12:07:18;;;;;;;8.95;5.32;;;;;;;15.25;37.71;102209.50;4989808;28;20407;-70
2022/01/12 12:09:53;;;;;;;9.05;5.60;;;;;;;15.52;38.83;102212.59;4989557;28;20034;-70
2022/01/12 12:12:21;;;;;;;10.10;6.07;;;;;;;15.72;36.52;102213.13;4990412;28;20026;-70
2022/01/12 12:14:49;;;;;;;10.98;5.65;;;;;;;15.98;35.33;102215.28;4972833;28;20026;-70
2022/01/12 12:17:24;;;;;;;9.10;4.88;;;;;;;15.95;36.29;102214.50;5113028;27;20184;-69
2022/01/12 12:19:50;;;;;;;7.97;5.15;;;;;;;15.18;37.08;102214.06;5085342;28;20036;-69
2022/01/12 12:22:17;;;;;;;9.15;5.45;;;;;;;15.03;36.49;102218.78;5085574;28;20031;-69
2022/01/12 12:24:44;;;;;;;8.23;4.97;;;;;;;14.29;38.85;102225.22;5086241;28;20041;-71
2022/01/12 12:27:16;;;;;;;8.70;5.57;;;;;;;13.94;40.00;102217.56;5086299;28;20040;-70
2022/01/12 12:29:44;;;;;;;8.32;5.38;;;;;;;13.10;40.82;102232.63;5086004;28;20028;-70
2022/01/12 12:32:13;;;;;;;8.82;5.97;;;;;;;12.32;41.61;102235.75;5085669;28;20027;-70
2022/01/12 12:34:40;;;;;;;8.80;5.47;;;;;;;11.02;44.46;102220.88;5083292;28;20552;-69